Time;durP1;ratioP1;P1;durP2;ratioP2;P2;SDS_P1;SDS_P2;PMS_P1;PMS_P2;Temp;Humidity;BMP_temperature;BMP_pressure;BME280_temperature;BME280_humidity;BME280_pressure;Samples;Min_cycle;Max_cycle;Signal;HPM_P1;HPM_P2
2021/11/21 00:01:39;;;;;;;42.08;19.35;;;;;;;4.55;92.88;100529.03;20981423;28;20075;-71
2021/11/21 00:11:41;;;;;;;42.38;19.20;;;;;;;4.55;94.14;100522.94;20981669;28;20521;-73
2021/11/21 00:21:43;;;;;;;46.60;20.17;;;;;;;4.41;93.98;100508.97;20982504;28;20048;-73
2021/11/21 00:31:44;;;;;;;43.45;20.00;;;;;;;4.47;94.40;100493.50;20995919;28;20389;-72
2021/11/21 00:41:46;;;;;;;45.83;20.77;;;;;;;4.47;93.36;100480.53;20996177;28;20052;-73
2021/11/21 00:51:49;;;;;;;40.45;17.90;;;;;;;4.51;92.60;100461.56;20994742;28;20493;-70
2021/11/21 01:01:52;;;;;;;45.50;19.88;;;;;;;4.61;91.87;100463.41;20993544;28;20402;-70
2021/11/21 01:11:57;;;;;;;37.17;18.77;;;;;;;4.18;92.46;100468.13;20993451;28;20468;-71
2021/11/21 01:21:59;;;;;;;;;;;;;;;4.32;92.68;100476.94;20993430;28;20413;-71
2021/11/21 01:32:02;;;;;;;43.35;20.15;;;;;;;4.26;93.62;100465.59;20991325;28;19947;-74
2021/11/21 01:42:04;;;;;;;43.30;21.08;;;;;;;4.22;93.78;100456.97;20991012;28;20044;-71
2021/11/21 01:52:06;;;;;;;34.42;18.20;;;;;;;4.22;92.42;100438.81;20990170;28;20143;-72
2021/11/21 02:02:08;;;;;;;34.00;18.27;;;;;;;4.27;91.76;100426.78;20988952;28;20102;-74
2021/11/21 02:12:11;;;;;;;33.70;18.65;;;;;;;4.26;91.92;100409.47;20988246;28;20048;-72
2021/11/21 02:22:12;;;;;;;35.67;17.33;;;;;;;4.38;90.85;100404.41;20987104;28;20365;-71
2021/11/21 02:32:14;;;;;;;34.60;16.73;;;;;;;4.50;90.58;100374.25;20986401;28;20052;-72
2021/11/21 02:42:34;;;;;;;30.10;15.68;;;;;;;4.64;90.62;100357.09;20986324;28;20109;-73
2021/11/21 02:52:36;;;;;;;29.15;15.07;;;;;;;4.56;90.76;100348.41;20985417;28;20063;-71
2021/11/21 03:02:38;;;;;;;30.85;15.02;;;;;;;4.51;90.02;100331.94;20984090;28;20044;-70
2021/11/21 03:12:42;;;;;;;29.48;14.48;;;;;;;4.56;88.73;100331.13;20984370;28;20056;-71
2021/11/21 03:22:43;;;;;;;30.63;14.05;;;;;;;4.62;89.21;100322.50;20982762;28;20091;-70
2021/11/21 03:32:46;;;;;;;30.58;14.68;;;;;;;4.56;88.53;100314.69;20982242;28;20052;-70
2021/11/21 03:42:48;;;;;;;26.88;14.02;;;;;;;4.63;89.17;100290.53;20983667;28;20110;-71
2021/11/21 03:52:49;;;;;;;27.80;12.98;;;;;;;4.61;88.61;100281.88;20982987;28;20063;-72
2021/11/21 04:02:52;;;;;;;25.27;12.77;;;;;;;4.69;89.42;100282.78;20995436;28;20055;-70
2021/11/21 04:12:54;;;;;;;24.63;12.85;;;;;;;4.74;89.07;100272.44;20998361;28;20064;-73
2021/11/21 04:22:55;;;;;;;25.35;12.20;;;;;;;4.71;88.26;100262.91;20996257;28;20075;-73
2021/11/21 04:32:57;;;;;;;25.67;11.82;;;;;;;4.69;88.99;100259.44;20996020;28;20114;-70
2021/11/21 04:42:59;;;;;;;23.95;11.93;;;;;;;4.79;88.21;100243.09;20995996;28;20562;-73
2021/11/21 04:53:01;;;;;;;23.65;11.82;;;;;;;4.75;89.17;100230.09;20994334;28;20075;-72
2021/11/21 05:03:02;;;;;;;26.55;12.27;;;;;;;4.73;89.47;100219.69;20993958;28;20052;-71
2021/11/21 05:13:04;;;;;;;24.95;12.38;;;;;;;4.73;89.19;100219.69;20993864;28;20053;-71
2021/11/21 05:23:06;;;;;;;24.58;12.93;;;;;;;4.88;88.80;100213.72;20992294;28;20057;-75
2021/11/21 05:33:07;;;;;;;25.40;12.93;;;;;;;4.77;88.95;100211.06;20991306;28;20044;-71
2021/11/21 05:43:09;;;;;;;25.27;11.57;;;;;;;4.70;87.60;100205.88;20991325;28;20048;-71
2021/11/21 05:53:10;;;;;;;22.42;11.63;;;;;;;4.66;87.63;100220.53;20991299;28;20048;-71
2021/11/21 06:03:12;;;;;;;21.70;11.07;;;;;;;4.69;88.39;100217.94;20988024;28;20113;-70
2021/11/21 06:13:13;;;;;;;15.38;8.00;;;;;;;4.51;87.52;100233.41;20988638;28;20139;-71
2021/11/21 06:23:15;;;;;;;8.85;4.05;;;;;;;4.42;86.68;100229.03;20987859;28;20459;-72
2021/11/21 06:33:16;;;;;;;6.97;3.20;;;;;;;4.26;86.45;100235.81;20986554;28;20048;-71
2021/11/21 06:43:18;;;;;;;8.60;3.15;;;;;;;4.22;85.70;100252.22;20986010;28;20041;-71
2021/11/21 06:53:21;;;;;;;7.30;2.80;;;;;;;4.25;85.68;100241.88;20985186;28;20048;-71
2021/11/21 07:03:22;;;;;;;9.75;3.53;;;;;;;4.35;86.53;100248.84;20984402;28;20501;-73
2021/11/21 07:13:23;;;;;;;7.00;3.03;;;;;;;4.30;87.15;100250.53;20983917;28;20049;-70
2021/11/21 07:23:25;;;;;;;8.48;3.58;;;;;;;4.41;87.74;100241.97;20982778;28;20060;-72
2021/11/21 07:33:27;;;;;;;10.15;4.03;;;;;;;4.47;87.67;100248.09;20983366;28;20040;-71
2021/11/21 07:43:30;;;;;;;9.10;3.70;;;;;;;4.53;87.28;100247.25;20982746;28;20094;-70
2021/11/21 07:53:32;;;;;;;5.78;3.25;;;;;;;4.62;87.88;100252.50;20982330;28;20139;-70
2021/11/21 08:03:33;;;;;;;6.70;3.35;;;;;;;4.66;87.37;100241.28;20977032;28;20098;-70
2021/11/21 08:13:38;;;;;;;10.27;4.10;;;;;;;4.59;88.34;100237.75;20943906;28;20114;-70
2021/11/21 08:23:40;;;;;;;7.57;3.20;;;;;;;4.70;87.67;100235.25;20934622;28;20045;-70
2021/11/21 08:33:42;;;;;;;11.48;5.70;;;;;;;4.73;87.52;100235.25;20972383;28;20048;-71
2021/11/21 08:43:43;;;;;;;13.27;5.28;;;;;;;4.81;88.30;100227.53;20926211;28;20048;-70
2021/11/21 08:53:46;;;;;;;11.57;5.43;;;;;;;4.94;87.75;100223.28;20933409;28;20098;-70
2021/11/21 09:03:48;;;;;;;11.82;4.95;;;;;;;4.99;87.14;100217.22;20933124;28;20040;-70
2021/11/21 09:13:50;;;;;;;11.10;4.55;;;;;;;5.05;86.29;100209.47;20927279;28;20057;-68
2021/11/21 09:23:54;;;;;;;16.83;8.30;;;;;;;5.19;85.90;100209.50;20904635;28;20053;-68
2021/11/21 09:33:56;;;;;;;16.52;6.75;;;;;;;5.35;84.97;100208.69;20906638;28;20548;-67
2021/11/21 09:43:57;;;;;;;18.05;7.43;;;;;;;5.38;84.25;100205.25;20905227;28;20048;-68
2021/11/21 09:53:59;;;;;;;18.17;7.57;;;;;;;5.51;84.15;100200.91;20899929;28;20087;-68
2021/11/21 10:04:01;;;;;;;12.85;5.85;;;;;;;5.54;84.04;100195.72;20900440;28;20091;-68
2021/11/21 10:14:04;;;;;;;15.90;6.35;;;;;;;5.58;83.83;100181.91;20935101;28;20052;-67
2021/11/21 10:24:15;;;;;;;12.98;5.82;;;;;;;5.73;84.10;100162.84;20980858;28;20048;-68
2021/11/21 10:34:16;;;;;;;14.10;6.05;;;;;;;6.05;82.80;100144.69;20979823;28;20574;-68
2021/11/21 10:44:21;;;;;;;11.77;6.13;;;;;;;6.13;82.56;100125.63;20978231;28;20055;-68
2021/11/21 10:54:27;;;;;;;12.63;6.20;;;;;;;5.97;83.19;100117.84;20977942;28;20070;-68
2021/11/21 11:04:29;;;;;;;14.02;6.28;;;;;;;6.23;82.26;100108.25;20976824;28;20052;-68
2021/11/21 11:14:30;;;;;;;11.75;5.88;;;;;;;6.28;80.78;100092.66;20936837;28;20179;-68
2021/11/21 11:24:40;;;;;;;11.65;5.03;;;;;;;6.29;80.71;100079.63;20892858;28;20121;-68
2021/11/21 11:34:42;;;;;;;13.57;5.68;;;;;;;6.33;80.18;100078.75;20892936;28;20056;-68
2021/11/21 11:44:55;;;;;;;10.23;5.00;;;;;;;6.15;80.36;100065.81;20893220;28;20106;-68
2021/11/21 11:55:08;;;;;;;13.75;4.30;;;;;;;6.40;79.80;100054.44;20891844;28;20103;-68
2021/11/21 12:05:09;;;;;;;7.65;3.60;;;;;;;6.52;79.81;100044.88;20892408;28;20095;-69
2021/11/21 12:15:42;;;;;;;9.02;4.10;;;;;;;6.68;78.49;100038.72;20938103;28;20098;-68
2021/11/21 12:25:44;;;;;;;7.18;3.30;;;;;;;6.32;79.35;100038.00;20990336;28;20090;-68
2021/11/21 12:35:51;;;;;;;8.27;2.95;;;;;;;6.36;78.62;100039.72;20989659;28;20401;-70
2021/11/21 12:45:59;;;;;;;8.10;3.10;;;;;;;6.32;80.04;100025.00;20989132;28;20087;-68
2021/11/21 12:56:04;;;;;;;7.68;3.15;;;;;;;6.25;79.31;100020.72;20953042;28;20049;-69
2021/11/21 13:06:08;;;;;;;6.80;2.97;;;;;;;6.41;79.82;100011.97;20904548;28;20119;-69
2021/11/21 13:16:13;;;;;;;7.35;3.80;;;;;;;6.35;79.21;100011.13;20957285;28;20054;-69
2021/11/21 13:26:17;;;;;;;9.85;4.30;;;;;;;6.26;78.55;100016.38;20986590;28;20048;-70
2021/11/21 13:36:28;;;;;;;9.38;3.65;;;;;;;6.20;79.64;100009.47;20974365;28;20144;-68
2021/11/21 13:46:39;;;;;;;6.40;2.92;;;;;;;6.24;80.06;100007.72;20984140;28;20098;-68
2021/11/21 13:56:44;;;;;;;6.40;3.00;;;;;;;6.26;79.99;100004.25;20983580;28;20049;-68
2021/11/21 14:06:46;;;;;;;9.30;4.00;;;;;;;6.22;80.29;100012.91;20978970;28;20493;-67
2021/11/21 14:16:51;;;;;;;6.28;2.92;;;;;;;6.27;80.55;100024.16;20980648;28;20101;-67
2021/11/21 14:27:05;;;;;;;8.82;4.15;;;;;;;6.35;80.26;100031.94;20980105;28;20094;-69
2021/11/21 14:37:14;;;;;;;12.00;4.47;;;;;;;6.25;80.88;100044.13;20978906;28;20041;-68
2021/11/21 14:47:16;;;;;;;7.90;3.50;;;;;;;6.11;81.22;100040.69;20977792;28;20117;-68
2021/11/21 14:57:21;;;;;;;9.13;3.42;;;;;;;6.02;82.58;100036.38;20977380;28;20052;-70
2021/11/21 15:07:23;;;;;;;7.40;3.50;;;;;;;5.95;83.21;100039.03;20978916;28;20493;-70
2021/11/21 15:17:24;;;;;;;8.40;3.60;;;;;;;5.98;84.15;100031.22;20975678;28;20098;-68
2021/11/21 15:27:26;;;;;;;10.40;5.38;;;;;;;5.97;84.85;100019.09;20975540;28;20417;-66
2021/11/21 15:37:27;;;;;;;8.95;4.90;;;;;;;5.92;85.19;100045.09;20976431;28;20056;-66
2021/11/21 15:47:29;;;;;;;12.88;5.68;;;;;;;5.85;85.60;100059.81;20973730;28;20083;-66
2021/11/21 15:57:30;;;;;;;11.55;6.40;;;;;;;5.89;84.61;100058.94;20986683;28;20106;-66
2021/11/21 16:07:41;;;;;;;11.23;6.10;;;;;;;5.77;85.43;100074.53;20990956;28;20698;-66
2021/11/21 16:17:44;;;;;;;10.68;5.60;;;;;;;5.82;86.13;100061.53;20989801;28;20072;-67
2021/11/21 16:27:48;;;;;;;12.32;7.50;;;;;;;5.78;85.84;100054.59;20989133;28;20454;-67
2021/11/21 16:37:49;;;;;;;15.18;8.40;;;;;;;5.77;85.95;100058.94;20988760;28;20538;-67
2021/11/21 16:47:51;;;;;;;13.75;7.28;;;;;;;5.65;86.20;100080.63;20987331;28;20098;-67
2021/11/21 16:57:53;;;;;;;14.18;6.82;;;;;;;5.68;85.52;100078.88;20985853;28;20048;-67
2021/11/21 17:07:54;;;;;;;11.45;5.72;;;;;;;5.69;86.36;100070.19;20982176;28;20048;-66
2021/11/21 17:17:56;;;;;;;11.80;5.43;;;;;;;5.57;86.12;100065.91;20919340;28;20053;-67
2021/11/21 17:27:57;;;;;;;10.05;5.38;;;;;;;5.53;86.83;100079.75;20903117;28;20041;-67
2021/11/21 17:37:59;;;;;;;8.15;5.22;;;;;;;5.50;86.05;100084.94;20901442;28;20068;-67
2021/11/21 17:48:01;;;;;;;11.45;5.82;;;;;;;5.46;86.84;100086.69;20900764;28;20555;-67
2021/11/21 17:58:03;;;;;;;9.80;5.43;;;;;;;5.49;86.24;100115.22;20899619;28;20103;-67
2021/11/21 18:08:04;;;;;;;12.93;7.20;;;;;;;5.57;86.33;100123.03;20961544;28;20451;-67
2021/11/21 18:18:06;;;;;;;11.95;6.20;;;;;;;5.51;86.42;100113.53;20912721;28;20056;-67
2021/11/21 18:28:09;;;;;;;12.50;5.38;;;;;;;5.42;85.63;100112.66;20898456;28;20454;-67
2021/11/21 18:38:11;;;;;;;12.63;6.82;;;;;;;5.26;86.25;100128.19;20924322;28;20072;-67
2021/11/21 18:48:12;;;;;;;13.13;6.18;;;;;;;5.28;86.83;100131.66;20978045;28;20090;-67
2021/11/21 18:58:15;;;;;;;16.45;7.78;;;;;;;5.34;86.53;100138.59;20967294;28;20048;-68
2021/11/21 19:08:20;;;;;;;15.02;7.05;;;;;;;5.42;87.01;100144.66;20975653;28;20048;-67
2021/11/21 19:18:22;;;;;;;41.50;20.38;;;;;;;5.40;86.54;100157.63;20977095;28;20044;-67
2021/11/21 19:28:23;;;;;;;12.98;7.28;;;;;;;5.47;86.72;100165.44;20976261;28;20076;-67
2021/11/21 19:38:29;;;;;;;12.70;6.90;;;;;;;5.45;86.76;100174.94;20975647;28;20052;-67
2021/11/21 19:48:30;;;;;;;14.82;7.80;;;;;;;5.45;88.18;100199.19;20977614;28;20044;-67
2021/11/21 19:58:33;;;;;;;14.38;8.48;;;;;;;5.31;90.02;100214.72;20975012;28;20101;-67
2021/11/21 20:08:35;;;;;;;14.95;7.50;;;;;;;5.26;91.82;100216.44;20973830;28;20444;-68
2021/11/21 20:18:37;;;;;;;14.45;8.18;;;;;;;5.27;92.70;100222.50;20897384;28;20102;-70
2021/11/21 20:28:38;;;;;;;18.48;8.63;;;;;;;5.17;92.70;100226.78;20883059;28;20049;-69
2021/11/21 20:38:40;;;;;;;15.65;8.27;;;;;;;5.13;93.33;100228.53;20890367;28;20049;-70
2021/11/21 20:48:41;;;;;;;12.73;7.50;;;;;;;5.14;93.72;100240.66;20969350;28;20101;-70
2021/11/21 20:58:43;;;;;;;14.43;7.90;;;;;;;5.14;93.57;100232.00;20987070;28;20098;-70
2021/11/21 21:08:48;;;;;;;17.55;9.95;;;;;;;5.18;94.37;100233.75;20914791;28;20143;-70
2021/11/21 21:18:50;;;;;;;19.45;11.32;;;;;;;5.15;94.81;100234.59;20976486;28;20048;-70
2021/11/21 21:28:52;;;;;;;17.58;9.98;;;;;;;5.06;95.04;100229.34;20985350;28;20048;-70
2021/11/21 21:38:54;;;;;;;17.00;10.13;;;;;;;4.99;94.14;100234.53;20984859;28;20048;-70
2021/11/21 21:48:56;;;;;;;14.93;8.10;;;;;;;4.93;94.56;100229.28;20982722;28;20459;-69
2021/11/21 21:58:57;;;;;;;16.00;8.93;;;;;;;4.99;94.69;100237.13;20982642;28;20530;-69
2021/11/21 22:09:01;;;;;;;17.17;9.80;;;;;;;4.94;94.79;100231.06;20981846;28;20102;-72
2021/11/21 22:19:03;;;;;;;16.20;9.00;;;;;;;4.98;95.61;100245.75;20903047;28;20053;-72
2021/11/21 22:29:05;;;;;;;15.85;9.23;;;;;;;5.02;96.13;100252.69;20926685;28;20429;-73
2021/11/21 22:39:07;;;;;;;18.92;9.52;;;;;;;4.97;95.31;100259.59;20933965;28;20048;-72
2021/11/21 22:49:08;;;;;;;17.17;8.65;;;;;;;5.10;96.02;100266.56;20933827;28;20114;-72
2021/11/21 22:59:10;;;;;;;21.42;11.10;;;;;;;5.05;95.78;100263.09;20932472;28;20049;-73
2021/11/21 23:09:12;;;;;;;18.75;10.32;;;;;;;4.94;96.35;100264.78;20937182;28;20067;-72
2021/11/21 23:19:13;;;;;;;17.10;9.20;;;;;;;5.06;96.62;100278.66;20938585;28;20538;-72
2021/11/21 23:29:15;;;;;;;16.77;9.60;;;;;;;5.03;96.54;100290.75;20938440;28;20109;-74
2021/11/21 23:39:16;;;;;;;20.10;10.95;;;;;;;5.01;95.98;100287.28;20938638;28;20036;-74
2021/11/21 23:49:18;;;;;;;16.92;9.80;;;;;;;4.99;96.20;100289.03;20916964;28;20053;-75
2021/11/21 23:59:19;;;;;;;15.65;8.85;;;;;;;4.89;96.51;100291.56;20898809;28;20045;-74
